createdAt,value
2022-10-11T00:00:38.599Z,12.84
2022-10-11T00:01:35.424Z,12.90
2022-10-11T00:02:32.119Z,12.77
2022-10-11T00:03:28.956Z,12.90
2022-10-11T00:04:25.761Z,12.64
2022-10-11T00:05:22.475Z,12.80
2022-10-11T00:06:19.032Z,12.86
2022-10-11T00:07:15.847Z,12.90
2022-10-11T00:08:13.708Z,12.88
2022-10-11T00:09:11.666Z,12.87
2022-10-11T00:10:09.404Z,12.78
2022-10-11T00:11:07.751Z,12.77
2022-10-11T00:12:04.513Z,12.84
2022-10-11T00:13:01.262Z,12.72
2022-10-11T00:13:58.995Z,12.88
2022-10-11T00:14:55.637Z,12.79
2022-10-11T00:15:52.535Z,12.73
2022-10-11T00:16:49.144Z,12.72
2022-10-11T00:17:46.036Z,12.92
2022-10-11T00:18:42.716Z,12.83
2022-10-11T00:19:39.268Z,12.75
2022-10-11T00:20:35.829Z,12.77
2022-10-11T00:21:32.483Z,12.95
2022-10-11T00:22:29.180Z,12.85
2022-10-11T00:23:25.790Z,12.81
2022-10-11T00:24:22.424Z,12.84
2022-10-11T00:25:19.366Z,13.05
2022-10-11T00:26:18.482Z,12.88
2022-10-11T00:27:15.288Z,12.42
2022-10-11T00:28:11.899Z,12.72
2022-10-11T00:29:08.646Z,12.61
2022-10-11T00:30:09.821Z,12.42
2022-10-11T00:31:11.344Z,12.55
2022-10-11T00:32:08.075Z,12.32
2022-10-11T00:33:04.637Z,12.71
2022-10-11T00:34:01.317Z,12.55
2022-10-11T00:34:59.806Z,12.45
2022-10-11T00:35:56.433Z,12.50
2022-10-11T00:36:53.055Z,12.59
2022-10-11T00:37:49.688Z,12.34
2022-10-11T00:38:46.930Z,12.62
2022-10-11T00:39:43.523Z,12.68
2022-10-11T00:40:40.281Z,12.63
2022-10-11T00:41:36.936Z,12.59
2022-10-11T00:42:33.824Z,12.51
2022-10-11T00:43:32.680Z,12.46
2022-10-11T00:44:32.649Z,12.43
2022-10-11T00:45:32.213Z,12.41
2022-10-11T00:46:31.199Z,12.32
2022-10-11T00:47:27.866Z,12.30
2022-10-11T00:48:40.036Z,12.55
2022-10-11T00:49:41.254Z,12.23
2022-10-11T00:50:37.915Z,12.40
2022-10-11T00:51:47.706Z,12.38
2022-10-11T00:52:56.562Z,12.11
2022-10-11T00:53:53.996Z,12.33
2022-10-11T00:54:51.221Z,11.98
2022-10-11T00:55:56.312Z,12.35
2022-10-11T00:56:58.674Z,12.18
2022-10-11T00:57:57.908Z,12.38
2022-10-11T00:58:55.880Z,12.26
2022-10-11T00:59:55.036Z,12.35
2022-10-11T01:00:52.246Z,12.38
2022-10-11T01:01:49.435Z,12.29
2022-10-11T01:02:47.119Z,12.22
2022-10-11T01:03:44.862Z,12.43
2022-10-11T01:04:42.200Z,12.43
2022-10-11T01:05:40.081Z,12.19
2022-10-11T01:06:36.722Z,12.11
2022-10-11T01:07:34.354Z,12.20
2022-10-11T01:08:31.571Z,12.09
2022-10-11T01:09:29.629Z,11.99
2022-10-11T01:10:27.815Z,11.91
2022-10-11T01:11:27.650Z,12.12
2022-10-11T01:12:27.464Z,11.81
2022-10-11T01:13:42.745Z,12.13
2022-10-11T01:14:53.133Z,11.91
2022-10-11T01:16:06.405Z,12.30
2022-10-11T01:17:44.287Z,12.29
2022-10-11T01:19:03.824Z,12.18
2022-10-11T01:20:25.265Z,12.17
2022-10-11T01:21:27.965Z,12.24
2022-10-11T01:22:33.224Z,12.11
2022-10-11T01:23:41.702Z,11.99
2022-10-11T01:24:38.242Z,11.92
2022-10-11T01:26:02.964Z,11.88
2022-10-11T01:26:59.817Z,11.55
2022-10-11T01:27:56.498Z,11.61
2022-10-11T01:29:14.900Z,11.54
2022-10-11T01:30:34.209Z,11.68
2022-10-11T01:31:58.935Z,11.78
2022-10-11T01:33:11.053Z,11.64
2022-10-11T01:34:19.625Z,11.38
2022-10-11T01:35:21.966Z,11.53
2022-10-11T01:36:31.399Z,11.58
2022-10-11T01:37:52.327Z,11.52
2022-10-11T01:38:59.674Z,11.47
2022-10-11T01:40:05.034Z,11.64
2022-10-11T01:41:13.859Z,11.59
2022-10-11T01:42:13.355Z,11.46
2022-10-11T01:43:10.260Z,10.95
2022-10-11T01:44:09.358Z,11.23
2022-10-11T01:45:09.697Z,11.20
2022-10-11T01:46:08.839Z,11.13
2022-10-11T01:47:05.765Z,10.99
2022-10-11T01:48:11.704Z,10.99
2022-10-11T01:49:09.185Z,10.78
2022-10-11T01:50:33.198Z,10.66
2022-10-11T01:51:47.480Z,10.79
2022-10-11T01:52:45.391Z,10.90
2022-10-11T01:54:00.536Z,10.98
2022-10-11T01:55:18.794Z,10.77
2022-10-11T01:56:30.297Z,10.92
2022-10-11T01:57:45.600Z,11.16
2022-10-11T01:59:00.276Z,11.17
2022-10-11T02:00:19.400Z,11.08
2022-10-11T02:01:47.168Z,11.01
2022-10-11T02:03:15.745Z,10.84
2022-10-11T02:04:40.252Z,11.00
2022-10-11T02:06:01.253Z,10.70
2022-10-11T02:07:01.376Z,10.96
2022-10-11T02:08:15.861Z,10.91
2022-10-11T02:09:20.838Z,10.88
2022-10-11T02:10:27.015Z,10.56
2022-10-11T02:11:29.698Z,10.90
2022-10-11T02:12:58.016Z,10.99
2022-10-11T02:14:00.597Z,10.75
2022-10-11T02:14:58.217Z,10.72
2022-10-11T02:15:57.428Z,10.57
2022-10-11T02:17:19.469Z,10.60
2022-10-11T02:18:20.740Z,10.69
2022-10-11T02:19:21.871Z,10.74
2022-10-11T02:20:23.481Z,10.30
2022-10-11T02:21:23.033Z,11.01
2022-10-11T02:22:28.483Z,11.11
2022-10-11T02:23:33.226Z,11.19
2022-10-11T02:24:33.754Z,11.29
2022-10-11T02:25:34.481Z,11.28
2022-10-11T02:26:33.181Z,11.39
2022-10-11T02:27:33.234Z,11.07
2022-10-11T02:28:33.608Z,11.15
2022-10-11T02:29:33.796Z,11.21
2022-10-11T02:30:31.212Z,11.15
2022-10-11T02:31:31.269Z,11.28
2022-10-11T02:32:30.361Z,11.03
2022-10-11T02:33:33.588Z,11.41
2022-10-11T02:34:37.455Z,11.54
2022-10-11T02:35:39.264Z,11.56
2022-10-11T02:37:10.411Z,11.58
2022-10-11T02:38:19.748Z,11.58
2022-10-11T02:39:23.492Z,11.61
2022-10-11T02:40:23.965Z,11.57
2022-10-11T02:41:30.067Z,11.67
2022-10-11T02:42:37.338Z,11.71
2022-10-11T02:43:39.819Z,11.50
2022-10-11T02:44:39.269Z,11.67
2022-10-11T02:45:39.715Z,11.68
2022-10-11T02:46:38.275Z,11.50
2022-10-11T02:47:35.238Z,11.78
2022-10-11T02:48:33.661Z,11.48
2022-10-11T02:49:32.161Z,11.60
2022-10-11T02:50:29.077Z,11.53
2022-10-11T02:51:27.317Z,11.75
2022-10-11T02:52:23.859Z,11.82
2022-10-11T02:53:21.344Z,11.76
2022-10-11T02:54:18.094Z,11.71
2022-10-11T02:55:14.756Z,11.81
2022-10-11T02:56:11.377Z,11.72
2022-10-11T02:57:08.169Z,11.79
2022-10-11T02:58:04.775Z,11.42
2022-10-11T02:59:01.515Z,11.73
2022-10-11T02:59:58.144Z,11.79
2022-10-11T03:00:54.813Z,11.80
2022-10-11T03:01:51.469Z,11.80
2022-10-11T03:02:48.171Z,11.93
2022-10-11T03:03:44.821Z,11.82
2022-10-11T03:04:41.616Z,11.53
2022-10-11T03:05:41.540Z,11.67
2022-10-11T03:06:38.273Z,11.59
2022-10-11T03:07:34.922Z,11.58
2022-10-11T03:08:31.543Z,11.75
2022-10-11T03:09:28.164Z,11.55
2022-10-11T03:10:24.832Z,11.64
2022-10-11T03:11:21.564Z,11.59
2022-10-11T03:12:18.198Z,11.86
2022-10-11T03:13:18.147Z,11.75
2022-10-11T03:14:15.144Z,11.25
2022-10-11T03:15:11.726Z,11.86
2022-10-11T03:16:08.796Z,11.79
2022-10-11T03:17:24.090Z,11.74
2022-10-11T03:18:22.231Z,11.78
2022-10-11T03:19:19.495Z,11.74
2022-10-11T03:20:18.476Z,11.71
2022-10-11T03:21:15.135Z,11.75
2022-10-11T03:22:11.800Z,11.61
2022-10-11T03:23:08.584Z,11.26
2022-10-11T03:24:05.524Z,11.75
2022-10-11T03:25:04.399Z,11.70
2022-10-11T03:26:01.529Z,11.67
2022-10-11T03:26:58.244Z,11.75
2022-10-11T03:27:54.843Z,11.49
2022-10-11T03:28:51.699Z,11.59
2022-10-11T03:29:48.335Z,11.42
2022-10-11T03:30:48.358Z,11.48
2022-10-11T03:31:44.922Z,11.61
2022-10-11T03:32:41.573Z,11.67
2022-10-11T03:33:38.375Z,11.62
2022-10-11T03:34:35.093Z,11.69
2022-10-11T03:35:31.675Z,11.68
2022-10-11T03:36:28.313Z,11.84
2022-10-11T03:37:25.499Z,11.52
2022-10-11T03:38:22.784Z,11.73
2022-10-11T03:39:19.765Z,11.56
2022-10-11T03:40:16.321Z,11.75
2022-10-11T03:41:12.961Z,11.80
2022-10-11T03:42:09.525Z,11.82
2022-10-11T03:43:06.115Z,11.73
2022-10-11T03:44:02.734Z,11.72
2022-10-11T03:45:01.729Z,11.69
2022-10-11T03:45:58.332Z,11.66
2022-10-11T03:46:54.919Z,11.66
2022-10-11T03:47:51.496Z,11.63
2022-10-11T03:48:48.670Z,11.61
2022-10-11T03:49:45.265Z,11.61
2022-10-11T03:50:42.406Z,11.75
2022-10-11T03:51:39.052Z,11.74
2022-10-11T03:52:36.439Z,11.64
2022-10-11T03:53:33.101Z,11.77
2022-10-11T03:54:29.701Z,11.75
2022-10-11T03:55:26.612Z,11.77
2022-10-11T03:56:23.180Z,11.76
2022-10-11T03:57:20.113Z,11.69
2022-10-11T03:58:16.708Z,11.77
2022-10-11T03:59:13.334Z,11.69
2022-10-11T04:00:10.309Z,11.86
2022-10-11T04:01:07.250Z,12.01
2022-10-11T04:02:04.479Z,11.84
2022-10-11T04:03:03.710Z,11.94
2022-10-11T04:04:00.345Z,12.01
2022-10-11T04:04:56.992Z,11.96
2022-10-11T04:05:53.689Z,11.97
2022-10-11T04:06:50.340Z,12.02
2022-10-11T04:07:46.979Z,11.95
2022-10-11T04:08:43.641Z,11.78
2022-10-11T04:09:40.306Z,11.66
2022-10-11T04:10:36.963Z,11.74
2022-10-11T04:11:33.559Z,11.81
2022-10-11T04:12:30.241Z,11.81
2022-10-11T04:13:26.815Z,11.72
2022-10-11T04:14:23.416Z,11.78
2022-10-11T04:15:20.301Z,11.99
2022-10-11T04:16:16.907Z,11.75
2022-10-11T04:17:13.483Z,11.26
2022-10-11T04:18:10.272Z,11.69
2022-10-11T04:19:07.098Z,11.74
2022-10-11T04:20:04.061Z,11.78
2022-10-11T04:21:00.651Z,11.83
2022-10-11T04:21:57.242Z,11.67
2022-10-11T04:22:53.819Z,11.74
2022-10-11T04:23:50.634Z,11.71
2022-10-11T04:24:47.234Z,11.93
2022-10-11T04:25:45.498Z,11.87
2022-10-11T04:26:42.140Z,11.62
2022-10-11T04:27:38.892Z,11.78
2022-10-11T04:28:36.286Z,11.72
2022-10-11T04:29:33.259Z,11.74
2022-10-11T04:30:29.994Z,11.74
2022-10-11T04:31:26.867Z,11.49
2022-10-11T04:32:23.995Z,11.76
2022-10-11T04:33:20.750Z,11.72
2022-10-11T04:34:17.872Z,11.72
2022-10-11T04:35:15.028Z,11.75
2022-10-11T04:36:12.133Z,11.69
2022-10-11T04:37:08.697Z,11.55
2022-10-11T04:38:05.394Z,11.68
2022-10-11T04:39:02.138Z,11.72
2022-10-11T04:39:58.740Z,11.44
2022-10-11T04:40:55.487Z,11.68
2022-10-11T04:41:52.149Z,11.75
2022-10-11T04:42:50.606Z,11.45
2022-10-11T04:43:47.393Z,11.73
2022-10-11T04:44:43.957Z,11.59
2022-10-11T04:45:40.544Z,11.62
2022-10-11T04:46:37.125Z,11.74
2022-10-11T04:47:33.783Z,11.77
2022-10-11T04:48:31.146Z,11.71
2022-10-11T04:49:27.685Z,11.73
2022-10-11T04:50:24.393Z,11.63
2022-10-11T04:51:21.199Z,11.86
2022-10-11T04:52:20.158Z,11.82
2022-10-11T04:53:20.185Z,11.83
2022-10-11T04:54:16.811Z,11.90
2022-10-11T04:55:13.442Z,11.95
2022-10-11T04:56:11.575Z,11.72
2022-10-11T04:57:08.374Z,11.73
2022-10-11T04:58:04.930Z,11.81
2022-10-11T04:59:01.495Z,11.86
2022-10-11T04:59:58.060Z,11.59
2022-10-11T05:00:55.234Z,11.94
2022-10-11T05:01:51.841Z,11.86
2022-10-11T05:02:48.793Z,11.80
2022-10-11T05:03:45.384Z,11.77
2022-10-11T05:04:42.864Z,11.38
2022-10-11T05:05:39.443Z,11.10
2022-10-11T05:06:36.054Z,11.60
2022-10-11T05:07:32.764Z,11.40
2022-10-11T05:08:29.424Z,11.56
2022-10-11T05:09:26.002Z,11.64
2022-10-11T05:10:22.572Z,11.69
2022-10-11T05:11:19.469Z,11.66
2022-10-11T05:12:16.093Z,11.77
2022-10-11T05:13:12.690Z,11.97
2022-10-11T05:14:09.355Z,11.91
2022-10-11T05:15:06.786Z,11.87
2022-10-11T05:16:10.294Z,11.83
2022-10-11T05:17:07.668Z,11.67
2022-10-11T05:18:04.298Z,11.85
2022-10-11T05:19:00.982Z,11.84
2022-10-11T05:19:57.576Z,11.90
2022-10-11T05:21:06.112Z,11.97
2022-10-11T05:22:02.844Z,12.06
2022-10-11T05:22:59.484Z,11.94
2022-10-11T05:23:57.077Z,11.73
2022-10-11T05:24:53.704Z,11.75
2022-10-11T05:25:50.271Z,11.79
2022-10-11T05:26:46.926Z,11.64
2022-10-11T05:27:43.556Z,11.64
2022-10-11T05:28:40.259Z,11.82
2022-10-11T05:29:36.894Z,11.75
2022-10-11T05:30:33.969Z,11.89
2022-10-11T05:31:30.612Z,11.97
2022-10-11T05:32:28.111Z,11.93
2022-10-11T05:33:25.142Z,11.95
2022-10-11T05:34:21.906Z,11.93
2022-10-11T05:35:18.557Z,11.55
2022-10-11T05:36:15.397Z,12.12
2022-10-11T05:37:11.994Z,11.96
2022-10-11T05:38:08.562Z,11.96
2022-10-11T05:39:05.247Z,11.94
2022-10-11T05:40:01.904Z,11.94
2022-10-11T05:41:03.474Z,11.83
2022-10-11T05:42:00.140Z,11.89
2022-10-11T05:42:56.729Z,11.79
2022-10-11T05:43:53.324Z,11.84
2022-10-11T05:44:49.960Z,11.77
2022-10-11T05:45:46.614Z,11.84
2022-10-11T05:46:43.276Z,11.85
2022-10-11T05:47:39.827Z,11.93
2022-10-11T05:48:36.534Z,11.73
2022-10-11T05:49:33.197Z,11.87
2022-10-11T05:50:30.228Z,12.04
2022-10-11T05:51:26.805Z,12.00
2022-10-11T05:52:23.520Z,12.01
2022-10-11T05:53:20.121Z,12.09
2022-10-11T05:54:16.693Z,12.01
2022-10-11T05:55:13.397Z,12.06
2022-10-11T05:56:22.667Z,11.94
2022-10-11T05:57:19.288Z,11.91
2022-10-11T05:58:18.564Z,11.94
2022-10-11T05:59:15.176Z,11.94
2022-10-11T06:00:12.114Z,12.01
2022-10-11T06:01:16.599Z,12.10
2022-10-11T06:02:13.575Z,12.14
2022-10-11T06:03:12.375Z,12.34
2022-10-11T06:04:09.212Z,12.30
2022-10-11T06:05:06.087Z,12.41
2022-10-11T06:06:03.305Z,12.25
2022-10-11T06:06:59.945Z,12.32
2022-10-11T06:07:58.295Z,12.27
2022-10-11T06:08:55.282Z,12.35
2022-10-11T06:09:52.078Z,12.28
2022-10-11T06:10:48.618Z,12.18
2022-10-11T06:11:45.571Z,12.18
2022-10-11T06:12:42.148Z,11.86
2022-10-11T06:13:38.835Z,12.07
2022-10-11T06:14:36.078Z,11.93
2022-10-11T06:15:33.373Z,12.32
2022-10-11T06:16:29.949Z,12.20
2022-10-11T06:17:26.889Z,12.37
2022-10-11T06:18:23.459Z,12.29
2022-10-11T06:19:20.014Z,12.27
2022-10-11T06:20:17.052Z,11.81
2022-10-11T06:21:13.814Z,12.01
2022-10-11T06:22:12.294Z,12.30
2022-10-11T06:23:08.918Z,12.20
2022-10-11T06:24:06.236Z,12.34
2022-10-11T06:25:02.851Z,12.33
2022-10-11T06:26:01.560Z,12.65
2022-10-11T06:26:58.311Z,12.44
2022-10-11T06:27:55.104Z,12.56
2022-10-11T06:28:52.748Z,12.41
2022-10-11T06:29:49.433Z,12.35
2022-10-11T06:30:46.119Z,12.43
2022-10-11T06:31:43.168Z,12.35
2022-10-11T06:32:40.139Z,12.57
2022-10-11T06:33:37.266Z,12.57
2022-10-11T06:34:33.938Z,12.61
2022-10-11T06:35:30.504Z,12.69
2022-10-11T06:36:27.412Z,12.44
2022-10-11T06:37:24.261Z,12.56
2022-10-11T06:38:20.822Z,12.47
2022-10-11T06:39:17.362Z,12.50
2022-10-11T06:40:14.005Z,12.40
2022-10-11T06:41:17.416Z,12.66
2022-10-11T06:42:13.975Z,12.58
2022-10-11T06:43:10.581Z,12.60
2022-10-11T06:44:10.742Z,12.63
2022-10-11T06:45:10.251Z,12.57
2022-10-11T06:46:07.470Z,12.67
2022-10-11T06:47:06.649Z,12.57
2022-10-11T06:48:05.735Z,12.51
2022-10-11T06:49:02.479Z,12.58
2022-10-11T06:49:59.058Z,12.55
2022-10-11T06:51:00.277Z,12.67
2022-10-11T06:51:57.334Z,12.59
2022-10-11T06:52:53.875Z,12.67
2022-10-11T06:53:51.916Z,12.67
2022-10-11T06:54:48.453Z,12.73
2022-10-11T06:55:45.017Z,12.76
2022-10-11T06:56:41.574Z,12.74
2022-10-11T06:57:38.569Z,12.67
2022-10-11T06:58:35.537Z,12.76
2022-10-11T06:59:32.143Z,12.83
2022-10-11T07:00:28.716Z,12.70
2022-10-11T07:01:26.566Z,12.63
2022-10-11T07:02:23.304Z,12.62
2022-10-11T07:03:19.896Z,12.63
2022-10-11T07:04:16.530Z,12.47
2022-10-11T07:05:13.124Z,12.60
2022-10-11T07:06:12.399Z,12.62
2022-10-11T07:07:09.020Z,12.41
2022-10-11T07:08:06.989Z,12.65
2022-10-11T07:09:06.579Z,12.63
2022-10-11T07:10:04.007Z,12.55
2022-10-11T07:11:03.317Z,12.59
2022-10-11T07:12:00.019Z,12.51
2022-10-11T07:12:56.664Z,12.37
2022-10-11T07:13:58.837Z,12.63
2022-10-11T07:14:55.497Z,12.63
2022-10-11T07:15:52.076Z,12.71
2022-10-11T07:16:48.762Z,12.67
2022-10-11T07:17:45.479Z,12.73
2022-10-11T07:18:42.227Z,12.85
2022-10-11T07:19:38.882Z,12.81
2022-10-11T07:20:36.090Z,12.89
2022-10-11T07:21:34.304Z,12.87
2022-10-11T07:22:30.959Z,12.87
2022-10-11T07:23:27.610Z,12.67
2022-10-11T07:24:24.308Z,12.88
2022-10-11T07:25:20.911Z,12.77
2022-10-11T07:26:18.590Z,12.85
2022-10-11T07:27:15.275Z,12.75
2022-10-11T07:28:12.819Z,12.97
2022-10-11T07:29:10.944Z,12.75
2022-10-11T07:30:08.054Z,12.82
2022-10-11T07:31:07.522Z,12.87
2022-10-11T07:32:04.324Z,12.95
2022-10-11T07:33:01.018Z,12.84
2022-10-11T07:33:57.777Z,12.87
2022-10-11T07:34:54.470Z,13.05
2022-10-11T07:35:51.150Z,12.94
2022-10-11T07:36:48.068Z,13.12
2022-10-11T07:37:45.024Z,13.00
2022-10-11T07:38:44.186Z,13.07
2022-10-11T07:39:40.877Z,13.03
2022-10-11T07:40:45.512Z,13.01
2022-10-11T07:41:45.925Z,13.07
2022-10-11T07:42:42.747Z,13.13
2022-10-11T07:43:39.718Z,13.08
2022-10-11T07:44:36.649Z,12.86
2022-10-11T07:45:33.400Z,13.01
2022-10-11T07:46:30.172Z,13.03
2022-10-11T07:47:26.739Z,13.06
2022-10-11T07:48:23.459Z,12.70
2022-10-11T07:49:20.125Z,12.53
2022-10-11T07:50:16.959Z,12.69
2022-10-11T07:51:17.257Z,12.66
2022-10-11T07:52:13.904Z,12.72
2022-10-11T07:53:10.511Z,12.81
2022-10-11T07:54:07.560Z,12.94
2022-10-11T07:55:04.866Z,12.86
2022-10-11T07:56:02.323Z,12.83
2022-10-11T07:56:59.506Z,12.73
2022-10-11T07:57:57.033Z,12.64
2022-10-11T07:58:56.242Z,12.71
2022-10-11T07:59:52.848Z,12.91
2022-10-11T08:00:53.613Z,12.99
2022-10-11T08:01:50.418Z,12.93
2022-10-11T08:02:47.223Z,12.86
2022-10-11T08:03:44.050Z,12.71
2022-10-11T08:04:40.631Z,12.68
2022-10-11T08:05:39.119Z,12.73
2022-10-11T08:06:36.655Z,12.66
2022-10-11T08:07:33.311Z,12.60
2022-10-11T08:08:31.032Z,12.69
2022-10-11T08:09:27.693Z,12.63
2022-10-11T08:10:25.833Z,12.01
2022-10-11T08:11:28.981Z,12.62
2022-10-11T08:12:25.575Z,12.64
2022-10-11T08:13:22.229Z,12.62
2022-10-11T08:14:19.090Z,12.31
2022-10-11T08:15:16.541Z,12.70
2022-10-11T08:16:13.479Z,12.53
2022-10-11T08:17:10.204Z,12.85
2022-10-11T08:18:06.787Z,12.95
2022-10-11T08:19:03.507Z,12.92
2022-10-11T08:20:00.543Z,12.99
2022-10-11T08:20:57.216Z,12.96
2022-10-11T08:21:53.865Z,13.36
2022-10-11T08:22:50.544Z,13.08
2022-10-11T08:23:49.416Z,13.29
2022-10-11T08:24:46.287Z,13.58
2022-10-11T08:25:49.599Z,13.55
2022-10-11T08:26:48.700Z,13.24
2022-10-11T08:27:45.433Z,13.65
2022-10-11T08:28:42.130Z,13.78
2022-10-11T08:29:39.005Z,13.76
2022-10-11T08:30:36.448Z,13.89
2022-10-11T08:31:35.394Z,13.90
2022-10-11T08:32:32.120Z,13.80
2022-10-11T08:33:28.880Z,14.02
2022-10-11T08:34:25.573Z,14.02
2022-10-11T08:35:22.183Z,14.18
2022-10-11T08:36:19.046Z,14.20
2022-10-11T08:37:15.872Z,14.11
2022-10-11T08:38:13.045Z,14.10
2022-10-11T08:39:09.637Z,14.16
2022-10-11T08:40:07.169Z,14.13
2022-10-11T08:41:14.627Z,13.26
2022-10-11T08:42:19.036Z,14.32
2022-10-11T08:43:44.627Z,14.18
2022-10-11T08:45:22.907Z,14.30
2022-10-11T08:46:12.156Z,14.07
2022-10-11T08:47:16.293Z,13.88
2022-10-11T08:48:18.595Z,13.91
2022-10-11T08:49:19.330Z,13.99
2022-10-11T08:50:20.365Z,13.79
2022-10-11T08:51:33.825Z,13.57
2022-10-11T08:52:48.439Z,13.88
2022-10-11T08:53:48.018Z,13.86
2022-10-11T08:54:50.291Z,13.65
2022-10-11T08:55:51.261Z,13.79
2022-10-11T08:56:48.586Z,13.76
2022-10-11T08:57:52.535Z,13.64
2022-10-11T08:58:58.146Z,13.74
2022-10-11T09:00:01.208Z,13.91
2022-10-11T09:00:59.402Z,13.92
2022-10-11T09:02:12.397Z,14.05
2022-10-11T09:03:39.153Z,13.80
2022-10-11T09:04:35.856Z,13.92
2022-10-11T09:05:35.668Z,13.84
2022-10-11T09:06:39.747Z,14.00
2022-10-11T09:08:13.692Z,14.06
2022-10-11T09:09:39.921Z,14.06
2022-10-11T09:10:51.766Z,14.03
2022-10-11T09:12:00.627Z,13.94
2022-10-11T09:13:30.928Z,14.19
2022-10-11T09:14:36.642Z,14.16
2022-10-11T09:15:48.382Z,14.03
2022-10-11T09:16:55.310Z,14.02
2022-10-11T09:17:51.956Z,14.09
2022-10-11T09:19:12.469Z,14.33
2022-10-11T09:20:41.389Z,14.34
2022-10-11T09:22:07.207Z,14.21
2022-10-11T09:23:32.997Z,14.43
2022-10-11T09:24:32.204Z,14.53
2022-10-11T09:25:49.458Z,14.61
2022-10-11T09:27:15.540Z,14.72
2022-10-11T09:28:22.022Z,15.02
2022-10-11T09:29:37.172Z,14.79
2022-10-11T09:30:35.973Z,14.90
2022-10-11T09:31:33.483Z,15.02
2022-10-11T09:32:39.466Z,14.60
2022-10-11T09:33:50.711Z,14.85
2022-10-11T09:34:55.921Z,14.59
2022-10-11T09:35:52.924Z,14.93
2022-10-11T09:37:18.451Z,15.02
2022-10-11T09:38:52.361Z,15.11
2022-10-11T09:40:06.387Z,14.82
2022-10-11T09:41:15.516Z,14.97
2022-10-11T09:42:12.535Z,14.91
2022-10-11T09:43:09.544Z,14.74
2022-10-11T09:44:07.677Z,14.83
2022-10-11T09:45:20.815Z,15.22
2022-10-11T09:46:32.488Z,15.17
2022-10-11T09:47:40.866Z,15.07
2022-10-11T09:48:41.395Z,14.84
2022-10-11T09:49:42.787Z,15.00
2022-10-11T09:50:39.591Z,15.08
2022-10-11T09:51:36.931Z,14.80
2022-10-11T09:52:33.735Z,14.72
2022-10-11T09:53:53.664Z,14.90
2022-10-11T09:54:54.508Z,14.69
2022-10-11T09:56:04.475Z,14.58
2022-10-11T09:57:02.296Z,14.80
2022-10-11T09:57:59.395Z,14.74
2022-10-11T09:59:18.784Z,14.90
2022-10-11T10:00:24.969Z,14.91
2022-10-11T10:01:26.301Z,14.71
2022-10-11T10:02:26.137Z,14.43
2022-10-11T10:03:32.120Z,14.68
2022-10-11T10:04:28.818Z,14.85
2022-10-11T10:05:34.236Z,14.93
2022-10-11T10:06:30.816Z,14.91
2022-10-11T10:07:30.255Z,14.71
2022-10-11T10:08:29.716Z,15.07
2022-10-11T10:09:30.442Z,15.37
2022-10-11T10:10:39.099Z,15.53
2022-10-11T10:11:38.850Z,15.59
2022-10-11T10:12:35.479Z,15.67
2022-10-11T10:13:51.442Z,15.75
2022-10-11T10:15:08.017Z,15.67
2022-10-11T10:16:05.716Z,15.74
2022-10-11T10:17:13.653Z,15.83
2022-10-11T10:18:37.515Z,16.10
2022-10-11T10:19:45.401Z,16.08
2022-10-11T10:20:52.097Z,15.78
2022-10-11T10:21:52.232Z,15.83
2022-10-11T10:22:49.533Z,15.99
2022-10-11T10:23:54.864Z,15.91
2022-10-11T10:24:52.081Z,16.16
2022-10-11T10:25:51.459Z,15.99
2022-10-11T10:27:10.467Z,16.50
2022-10-11T10:28:23.279Z,16.25
2022-10-11T10:29:21.115Z,16.50
2022-10-11T10:30:19.509Z,16.35
2022-10-11T10:31:49.580Z,16.38
2022-10-11T10:32:55.027Z,16.60
2022-10-11T10:33:54.412Z,16.12
2022-10-11T10:35:08.384Z,16.20
2022-10-11T10:36:18.780Z,16.31
2022-10-11T10:37:50.655Z,16.60
2022-10-11T10:39:01.675Z,16.59
2022-10-11T10:40:14.377Z,16.38
2022-10-11T10:41:14.360Z,16.39
2022-10-11T10:42:15.680Z,16.35
2022-10-11T10:43:27.756Z,16.63
2022-10-11T10:44:24.358Z,16.30
2022-10-11T10:45:28.368Z,16.48
2022-10-11T10:46:37.073Z,16.55
2022-10-11T10:48:11.222Z,17.00
2022-10-11T10:49:48.889Z,17.25
2022-10-11T10:50:48.400Z,17.27
2022-10-11T10:52:05.596Z,17.07
2022-10-11T10:53:20.865Z,16.76
2022-10-11T10:54:59.385Z,17.21
2022-10-11T10:56:11.084Z,17.29
2022-10-11T10:57:24.865Z,17.22
2022-10-11T10:58:42.645Z,17.73
2022-10-11T10:59:42.285Z,17.93
2022-10-11T11:00:46.657Z,17.80
2022-10-11T11:02:15.883Z,17.85
2022-10-11T11:03:24.198Z,17.68
2022-10-11T11:04:34.216Z,18.02
2022-10-11T11:05:55.531Z,17.90
2022-10-11T11:07:02.499Z,17.61
2022-10-11T11:08:05.220Z,18.07
2022-10-11T11:09:37.299Z,18.05
2022-10-11T11:10:53.711Z,18.26
2022-10-11T11:11:50.273Z,18.07
2022-10-11T11:13:24.243Z,18.02
2022-10-11T11:15:05.869Z,18.26
2022-10-11T11:16:19.360Z,18.67
2022-10-11T11:17:30.216Z,18.45
2022-10-11T11:18:38.293Z,18.17
2022-10-11T11:20:22.178Z,17.99
2022-10-11T11:21:30.959Z,17.61
2022-10-11T11:22:46.027Z,17.92
2022-10-11T11:24:06.021Z,18.06
2022-10-11T11:25:26.752Z,18.04
2022-10-11T11:26:48.774Z,17.97
2022-10-11T11:28:03.475Z,17.72
2022-10-11T11:29:57.332Z,17.54
2022-10-11T11:31:26.769Z,17.44
2022-10-11T11:32:45.937Z,17.75
2022-10-11T11:34:04.469Z,17.50
2022-10-11T11:35:09.817Z,17.49
2022-10-11T11:36:13.927Z,17.58
2022-10-11T11:37:26.011Z,17.36
2022-10-11T11:38:51.671Z,17.63
2022-10-11T11:39:53.961Z,17.42
2022-10-11T11:40:58.183Z,17.55
2022-10-11T11:42:18.624Z,17.32
2022-10-11T11:43:26.258Z,17.64
2022-10-11T11:44:32.751Z,17.22
2022-10-11T11:45:51.635Z,16.96
2022-10-11T11:46:56.429Z,17.24
2022-10-11T11:48:02.807Z,17.24
2022-10-11T11:49:06.853Z,17.35
2022-10-11T11:50:09.169Z,17.32
2022-10-11T11:51:11.522Z,17.55
2022-10-11T11:52:14.943Z,17.63
2022-10-11T11:53:18.271Z,17.20
2022-10-11T11:54:49.608Z,17.79
2022-10-11T11:56:13.038Z,17.44
2022-10-11T11:57:15.456Z,17.47
2022-10-11T11:58:24.074Z,17.69
2022-10-11T11:59:32.346Z,17.74
2022-10-11T12:00:54.824Z,17.76
2022-10-11T12:02:03.561Z,17.24
2022-10-11T12:03:10.865Z,17.48
2022-10-11T12:04:37.807Z,16.92
2022-10-11T12:05:36.219Z,17.16
2022-10-11T12:06:40.278Z,17.14
2022-10-11T12:08:04.475Z,17.47
2022-10-11T12:09:05.716Z,17.27
2022-10-11T12:10:19.206Z,17.37
2022-10-11T12:11:39.840Z,17.19
2022-10-11T12:12:38.189Z,17.46
2022-10-11T12:13:37.835Z,17.20
2022-10-11T12:14:38.484Z,17.34
2022-10-11T12:15:36.489Z,16.98
2022-10-11T12:16:34.162Z,17.02
2022-10-11T12:17:31.711Z,17.08
2022-10-11T12:18:30.928Z,17.08
2022-10-11T12:19:27.599Z,16.85
2022-10-11T12:20:38.116Z,16.91
2022-10-11T12:21:39.874Z,16.78
2022-10-11T12:22:42.706Z,16.56
2022-10-11T12:23:44.275Z,16.74
2022-10-11T12:25:22.407Z,16.87
2022-10-11T12:26:28.048Z,16.72
2022-10-11T12:27:36.514Z,16.79
2022-10-11T12:28:42.454Z,17.01
2022-10-11T12:29:43.756Z,16.80
2022-10-11T12:30:50.808Z,16.69
2022-10-11T12:31:59.162Z,16.61
2022-10-11T12:33:13.447Z,16.54
2022-10-11T12:34:09.993Z,16.57
2022-10-11T12:35:48.669Z,16.48
2022-10-11T12:36:47.851Z,16.37
2022-10-11T12:37:51.508Z,16.36
2022-10-11T12:39:20.289Z,16.44
2022-10-11T12:40:36.027Z,16.41
2022-10-11T12:41:55.237Z,16.09
2022-10-11T12:43:36.290Z,16.53
2022-10-11T12:44:33.003Z,16.27
2022-10-11T12:45:32.681Z,16.21
2022-10-11T12:46:29.342Z,16.45
2022-10-11T12:47:45.785Z,16.70
2022-10-11T12:49:21.190Z,16.70
2022-10-11T12:50:23.601Z,16.55
2022-10-11T12:51:20.182Z,16.50
2022-10-11T12:52:16.868Z,16.75
2022-10-11T12:53:31.425Z,16.45
2022-10-11T12:54:43.164Z,16.48
2022-10-11T12:55:48.557Z,16.60
2022-10-11T12:57:11.871Z,16.48
2022-10-11T12:58:41.666Z,16.46
2022-10-11T12:59:44.652Z,16.34
2022-10-11T13:01:03.434Z,16.44
2022-10-11T13:02:00.604Z,16.50
2022-10-11T13:03:00.943Z,16.63
2022-10-11T13:04:19.003Z,16.21
2022-10-11T13:05:24.715Z,16.59
2022-10-11T13:06:33.916Z,16.45
2022-10-11T13:07:31.438Z,16.38
2022-10-11T13:08:34.548Z,16.18
2022-10-11T13:09:39.331Z,16.25
2022-10-11T13:10:42.548Z,16.30
2022-10-11T13:11:46.512Z,15.91
2022-10-11T13:12:46.708Z,15.88
2022-10-11T13:14:08.814Z,16.29
2022-10-11T13:15:12.809Z,16.02
2022-10-11T13:16:16.178Z,16.16
2022-10-11T13:17:19.440Z,16.14
2022-10-11T13:18:17.641Z,16.06
2022-10-11T13:19:14.728Z,15.96
2022-10-11T13:20:17.592Z,16.14
2022-10-11T13:21:25.851Z,15.75
2022-10-11T13:22:23.921Z,15.98
2022-10-11T13:23:25.052Z,16.14
2022-10-11T13:24:23.233Z,16.20